sensor_id;sensor_type;location;lat;lon;timestamp;temperature;humidity
46055;DHT22;31788;6.954;-71.872;2022-10-31T00:01:26;28.50;99.90
46055;DHT22;31788;6.954;-71.872;2022-10-31T00:03:53;28.50;99.90
46055;DHT22;31788;6.954;-71.872;2022-10-31T00:06:21;28.50;99.90
46055;DHT22;31788;6.954;-71.872;2022-10-31T00:08:52;28.50;99.90
46055;DHT22;31788;6.954;-71.872;2022-10-31T00:11:21;28.40;99.90
46055;DHT22;31788;6.954;-71.872;2022-10-31T00:13:48;28.50;99.90
46055;DHT22;31788;6.954;-71.872;2022-10-31T00:16:16;28.50;99.90
46055;DHT22;31788;6.954;-71.872;2022-10-31T00:18:43;28.40;99.90
46055;DHT22;31788;6.954;-71.872;2022-10-31T00:21:10;28.40;99.90
46055;DHT22;31788;6.954;-71.872;2022-10-31T00:23:36;28.40;99.90
46055;DHT22;31788;6.954;-71.872;2022-10-31T00:26:03;28.40;99.90
46055;DHT22;31788;6.954;-71.872;2022-10-31T00:28:31;28.40;99.90
46055;DHT22;31788;6.954;-71.872;2022-10-31T00:31:01;28.40;99.90
46055;DHT22;31788;6.954;-71.872;2022-10-31T00:33:28;28.50;99.90
46055;DHT22;31788;6.954;-71.872;2022-10-31T00:35:56;28.50;99.90
46055;DHT22;31788;6.954;-71.872;2022-10-31T00:38:23;28.50;99.90
46055;DHT22;31788;6.954;-71.872;2022-10-31T00:40:49;28.50;99.90
46055;DHT22;31788;6.954;-71.872;2022-10-31T00:43:16;28.50;99.90
46055;DHT22;31788;6.954;-71.872;2022-10-31T00:45:43;28.40;99.90
46055;DHT22;31788;6.954;-71.872;2022-10-31T00:48:10;28.40;99.90
46055;DHT22;31788;6.954;-71.872;2022-10-31T00:50:37;28.40;99.90
46055;DHT22;31788;6.954;-71.872;2022-10-31T00:53:04;28.40;99.90
46055;DHT22;31788;6.954;-71.872;2022-10-31T00:55:30;28.40;99.90
46055;DHT22;31788;6.954;-71.872;2022-10-31T00:57:57;28.40;99.90
46055;DHT22;31788;6.954;-71.872;2022-10-31T01:00:24;28.40;99.90
46055;DHT22;31788;6.954;-71.872;2022-10-31T01:02:50;28.40;99.90
46055;DHT22;31788;6.954;-71.872;2022-10-31T01:05:17;28.30;99.90
46055;DHT22;31788;6.954;-71.872;2022-10-31T01:07:44;28.30;99.90
46055;DHT22;31788;6.954;-71.872;2022-10-31T01:10:11;28.40;99.90
46055;DHT22;31788;6.954;-71.872;2022-10-31T01:12:43;28.40;99.90
46055;DHT22;31788;6.954;-71.872;2022-10-31T01:15:12;28.40;99.90
46055;DHT22;31788;6.954;-71.872;2022-10-31T01:17:39;28.40;99.90
46055;DHT22;31788;6.954;-71.872;2022-10-31T01:20:07;28.40;99.90
46055;DHT22;31788;6.954;-71.872;2022-10-31T01:22:34;28.30;99.90
46055;DHT22;31788;6.954;-71.872;2022-10-31T01:25:01;28.30;99.90
46055;DHT22;31788;6.954;-71.872;2022-10-31T01:27:28;28.20;99.90
46055;DHT22;31788;6.954;-71.872;2022-10-31T01:29:55;28.20;99.90
46055;DHT22;31788;6.954;-71.872;2022-10-31T01:32:22;28.30;99.90
46055;DHT22;31788;6.954;-71.872;2022-10-31T01:34:49;28.20;99.90
46055;DHT22;31788;6.954;-71.872;2022-10-31T01:37:19;28.30;99.90
46055;DHT22;31788;6.954;-71.872;2022-10-31T01:39:47;28.20;99.90
46055;DHT22;31788;6.954;-71.872;2022-10-31T01:42:21;28.20;99.90
46055;DHT22;31788;6.954;-71.872;2022-10-31T01:44:53;28.30;99.90
46055;DHT22;31788;6.954;-71.872;2022-10-31T01:47:27;28.30;99.90
46055;DHT22;31788;6.954;-71.872;2022-10-31T01:50:00;28.30;99.90
46055;DHT22;31788;6.954;-71.872;2022-10-31T01:52:36;28.20;99.90
46055;DHT22;31788;6.954;-71.872;2022-10-31T01:55:09;28.20;99.90
46055;DHT22;31788;6.954;-71.872;2022-10-31T01:57:38;28.20;99.90
46055;DHT22;31788;6.954;-71.872;2022-10-31T02:00:09;28.20;99.90
46055;DHT22;31788;6.954;-71.872;2022-10-31T02:02:36;28.20;99.90
46055;DHT22;31788;6.954;-71.872;2022-10-31T02:05:08;28.20;99.90
46055;DHT22;31788;6.954;-71.872;2022-10-31T02:08:06;28.20;99.90
46055;DHT22;31788;6.954;-71.872;2022-10-31T02:10:36;28.20;99.90
46055;DHT22;31788;6.954;-71.872;2022-10-31T02:13:06;28.20;99.90
46055;DHT22;31788;6.954;-71.872;2022-10-31T02:15:37;28.30;99.90
46055;DHT22;31788;6.954;-71.872;2022-10-31T02:18:05;28.30;99.90
46055;DHT22;31788;6.954;-71.872;2022-10-31T02:20:58;28.30;99.90
46055;DHT22;31788;6.954;-71.872;2022-10-31T02:32:11;28.30;99.90
46055;DHT22;31788;6.954;-71.872;2022-10-31T02:37:36;28.30;99.90
46055;DHT22;31788;6.954;-71.872;2022-10-31T02:40:17;28.30;99.90
46055;DHT22;31788;6.954;-71.872;2022-10-31T02:48:02;28.30;99.90
46055;DHT22;31788;6.954;-71.872;2022-10-31T02:50:35;28.20;99.90
46055;DHT22;31788;6.954;-71.872;2022-10-31T02:53:04;28.20;99.90
46055;DHT22;31788;6.954;-71.872;2022-10-31T03:00:30;28.20;99.90
46055;DHT22;31788;6.954;-71.872;2022-10-31T03:05:55;28.10;99.90
46055;DHT22;31788;6.954;-71.872;2022-10-31T03:08:25;28.10;99.90
46055;DHT22;31788;6.954;-71.872;2022-10-31T03:11:01;28.00;99.90
46055;DHT22;31788;6.954;-71.872;2022-10-31T03:19:03;28.00;99.90
46055;DHT22;31788;6.954;-71.872;2022-10-31T03:21:35;28.00;99.90
46055;DHT22;31788;6.954;-71.872;2022-10-31T03:24:02;27.90;99.90
46055;DHT22;31788;6.954;-71.872;2022-10-31T03:26:34;27.90;99.90
46055;DHT22;31788;6.954;-71.872;2022-10-31T03:29:05;27.90;99.90
46055;DHT22;31788;6.954;-71.872;2022-10-31T03:32:14;27.90;99.90
46055;DHT22;31788;6.954;-71.872;2022-10-31T03:34:41;27.80;99.90
46055;DHT22;31788;6.954;-71.872;2022-10-31T03:37:11;27.80;99.90
46055;DHT22;31788;6.954;-71.872;2022-10-31T03:39:41;27.70;99.90
46055;DHT22;31788;6.954;-71.872;2022-10-31T03:42:21;27.80;99.90
46055;DHT22;31788;6.954;-71.872;2022-10-31T03:45:00;27.70;99.90
46055;DHT22;31788;6.954;-71.872;2022-10-31T03:47:27;27.70;99.90
46055;DHT22;31788;6.954;-71.872;2022-10-31T03:49:54;27.70;99.90
46055;DHT22;31788;6.954;-71.872;2022-10-31T03:52:36;27.70;99.90
46055;DHT22;31788;6.954;-71.872;2022-10-31T03:55:31;27.70;99.90
46055;DHT22;31788;6.954;-71.872;2022-10-31T03:58:10;27.70;99.90
46055;DHT22;31788;6.954;-71.872;2022-10-31T04:00:44;27.80;99.90
46055;DHT22;31788;6.954;-71.872;2022-10-31T04:03:17;27.80;99.90
46055;DHT22;31788;6.954;-71.872;2022-10-31T04:05:48;27.80;99.90
46055;DHT22;31788;6.954;-71.872;2022-10-31T04:08:18;27.80;99.90
46055;DHT22;31788;6.954;-71.872;2022-10-31T04:10:48;27.80;99.90
46055;DHT22;31788;6.954;-71.872;2022-10-31T04:13:19;27.80;99.90
46055;DHT22;31788;6.954;-71.872;2022-10-31T04:15:48;27.80;99.90
46055;DHT22;31788;6.954;-71.872;2022-10-31T04:18:16;27.80;99.90
46055;DHT22;31788;6.954;-71.872;2022-10-31T04:20:42;27.80;99.90
46055;DHT22;31788;6.954;-71.872;2022-10-31T04:23:18;27.90;99.90
46055;DHT22;31788;6.954;-71.872;2022-10-31T04:25:45;27.90;99.90
46055;DHT22;31788;6.954;-71.872;2022-10-31T04:28:11;27.90;99.90
46055;DHT22;31788;6.954;-71.872;2022-10-31T04:30:38;27.80;99.90
46055;DHT22;31788;6.954;-71.872;2022-10-31T04:33:04;27.80;99.90
46055;DHT22;31788;6.954;-71.872;2022-10-31T04:35:31;27.80;99.90
46055;DHT22;31788;6.954;-71.872;2022-10-31T04:37:58;27.90;99.90
46055;DHT22;31788;6.954;-71.872;2022-10-31T04:40:26;27.90;99.90
46055;DHT22;31788;6.954;-71.872;2022-10-31T04:42:52;27.90;99.90
46055;DHT22;31788;6.954;-71.872;2022-10-31T04:45:19;27.90;99.90
46055;DHT22;31788;6.954;-71.872;2022-10-31T04:47:45;27.90;99.90
46055;DHT22;31788;6.954;-71.872;2022-10-31T04:50:12;27.90;99.90
46055;DHT22;31788;6.954;-71.872;2022-10-31T04:52:43;27.90;99.90
46055;DHT22;31788;6.954;-71.872;2022-10-31T04:55:11;27.90;99.90
46055;DHT22;31788;6.954;-71.872;2022-10-31T04:57:46;27.90;99.90
46055;DHT22;31788;6.954;-71.872;2022-10-31T05:00:14;27.90;99.90
46055;DHT22;31788;6.954;-71.872;2022-10-31T05:02:48;27.90;99.90
46055;DHT22;31788;6.954;-71.872;2022-10-31T05:05:18;27.90;99.90
46055;DHT22;31788;6.954;-71.872;2022-10-31T05:07:46;27.90;99.90
46055;DHT22;31788;6.954;-71.872;2022-10-31T05:10:15;27.90;99.90
46055;DHT22;31788;6.954;-71.872;2022-10-31T05:12:51;27.90;99.90
46055;DHT22;31788;6.954;-71.872;2022-10-31T05:15:19;28.00;99.90
46055;DHT22;31788;6.954;-71.872;2022-10-31T05:17:45;28.00;99.90
46055;DHT22;31788;6.954;-71.872;2022-10-31T05:20:13;27.90;99.90
46055;DHT22;31788;6.954;-71.872;2022-10-31T05:22:44;27.90;99.90
46055;DHT22;31788;6.954;-71.872;2022-10-31T05:25:12;27.90;99.90
46055;DHT22;31788;6.954;-71.872;2022-10-31T05:27:46;27.90;99.90
46055;DHT22;31788;6.954;-71.872;2022-10-31T05:30:15;27.90;99.90
46055;DHT22;31788;6.954;-71.872;2022-10-31T05:32:44;27.90;99.90
46055;DHT22;31788;6.954;-71.872;2022-10-31T05:35:13;27.90;99.90
46055;DHT22;31788;6.954;-71.872;2022-10-31T05:37:40;27.90;99.90
46055;DHT22;31788;6.954;-71.872;2022-10-31T05:40:09;27.80;99.90
46055;DHT22;31788;6.954;-71.872;2022-10-31T05:42:37;27.80;99.90
46055;DHT22;31788;6.954;-71.872;2022-10-31T05:45:04;27.80;99.90
46055;DHT22;31788;6.954;-71.872;2022-10-31T05:47:31;27.80;99.90
46055;DHT22;31788;6.954;-71.872;2022-10-31T05:49:57;27.70;99.90
46055;DHT22;31788;6.954;-71.872;2022-10-31T05:52:24;27.70;99.90
46055;DHT22;31788;6.954;-71.872;2022-10-31T05:54:50;27.70;99.90
46055;DHT22;31788;6.954;-71.872;2022-10-31T05:57:17;27.70;99.90
46055;DHT22;31788;6.954;-71.872;2022-10-31T05:59:44;27.70;99.90
46055;DHT22;31788;6.954;-71.872;2022-10-31T06:02:10;27.70;99.90
46055;DHT22;31788;6.954;-71.872;2022-10-31T06:04:37;27.70;99.90
46055;DHT22;31788;6.954;-71.872;2022-10-31T06:07:03;27.70;99.90
46055;DHT22;31788;6.954;-71.872;2022-10-31T06:09:30;27.70;99.90
46055;DHT22;31788;6.954;-71.872;2022-10-31T06:11:56;27.70;99.90
46055;DHT22;31788;6.954;-71.872;2022-10-31T06:14:23;27.70;99.90
46055;DHT22;31788;6.954;-71.872;2022-10-31T06:16:49;27.70;99.90
46055;DHT22;31788;6.954;-71.872;2022-10-31T06:19:16;27.70;99.90
46055;DHT22;31788;6.954;-71.872;2022-10-31T06:21:42;27.70;99.90
46055;DHT22;31788;6.954;-71.872;2022-10-31T06:24:09;27.70;99.90
46055;DHT22;31788;6.954;-71.872;2022-10-31T06:26:36;27.70;99.90
46055;DHT22;31788;6.954;-71.872;2022-10-31T06:29:02;27.70;99.90
46055;DHT22;31788;6.954;-71.872;2022-10-31T06:31:29;27.70;99.90
46055;DHT22;31788;6.954;-71.872;2022-10-31T06:33:55;27.70;99.90
46055;DHT22;31788;6.954;-71.872;2022-10-31T06:36:22;27.70;99.90
46055;DHT22;31788;6.954;-71.872;2022-10-31T06:38:48;27.60;99.90
46055;DHT22;31788;6.954;-71.872;2022-10-31T06:41:15;27.60;99.90
46055;DHT22;31788;6.954;-71.872;2022-10-31T06:43:42;27.60;99.90
46055;DHT22;31788;6.954;-71.872;2022-10-31T06:46:08;27.60;99.90
46055;DHT22;31788;6.954;-71.872;2022-10-31T06:48:35;27.60;99.90
46055;DHT22;31788;6.954;-71.872;2022-10-31T06:51:01;27.60;99.90
46055;DHT22;31788;6.954;-71.872;2022-10-31T06:53:28;27.60;99.90
46055;DHT22;31788;6.954;-71.872;2022-10-31T06:55:56;27.60;99.90
46055;DHT22;31788;6.954;-71.872;2022-10-31T06:58:23;27.60;99.90
46055;DHT22;31788;6.954;-71.872;2022-10-31T07:00:54;27.60;99.90
46055;DHT22;31788;6.954;-71.872;2022-10-31T07:03:20;27.60;99.90
46055;DHT22;31788;6.954;-71.872;2022-10-31T07:05:47;27.60;99.90
46055;DHT22;31788;6.954;-71.872;2022-10-31T07:08:14;27.50;99.90
46055;DHT22;31788;6.954;-71.872;2022-10-31T07:10:42;27.50;99.90
46055;DHT22;31788;6.954;-71.872;2022-10-31T07:13:14;27.50;99.90
46055;DHT22;31788;6.954;-71.872;2022-10-31T07:15:42;27.40;99.90
46055;DHT22;31788;6.954;-71.872;2022-10-31T07:18:10;27.50;99.90
46055;DHT22;31788;6.954;-71.872;2022-10-31T07:20:37;27.50;99.90
46055;DHT22;31788;6.954;-71.872;2022-10-31T07:23:03;27.50;99.90
46055;DHT22;31788;6.954;-71.872;2022-10-31T07:25:30;27.40;99.90
46055;DHT22;31788;6.954;-71.872;2022-10-31T07:27:57;27.40;99.90
46055;DHT22;31788;6.954;-71.872;2022-10-31T07:30:23;27.40;99.90
46055;DHT22;31788;6.954;-71.872;2022-10-31T07:32:50;27.40;99.90
46055;DHT22;31788;6.954;-71.872;2022-10-31T07:35:20;27.40;99.90
46055;DHT22;31788;6.954;-71.872;2022-10-31T07:37:47;27.40;99.90
46055;DHT22;31788;6.954;-71.872;2022-10-31T07:40:14;27.40;99.90
46055;DHT22;31788;6.954;-71.872;2022-10-31T07:42:45;27.40;99.90
46055;DHT22;31788;6.954;-71.872;2022-10-31T07:45:14;27.40;99.90
46055;DHT22;31788;6.954;-71.872;2022-10-31T07:47:51;27.40;99.90
46055;DHT22;31788;6.954;-71.872;2022-10-31T07:50:20;27.40;99.90
46055;DHT22;31788;6.954;-71.872;2022-10-31T07:52:47;27.40;99.90
46055;DHT22;31788;6.954;-71.872;2022-10-31T07:55:14;27.40;99.90
46055;DHT22;31788;6.954;-71.872;2022-10-31T07:57:41;27.30;99.90
46055;DHT22;31788;6.954;-71.872;2022-10-31T08:00:09;27.30;99.90
46055;DHT22;31788;6.954;-71.872;2022-10-31T08:02:36;27.30;99.90
46055;DHT22;31788;6.954;-71.872;2022-10-31T08:05:02;27.30;99.90
46055;DHT22;31788;6.954;-71.872;2022-10-31T08:07:29;27.30;99.90
46055;DHT22;31788;6.954;-71.872;2022-10-31T08:10:01;27.30;99.90
46055;DHT22;31788;6.954;-71.872;2022-10-31T08:12:28;27.30;99.90
46055;DHT22;31788;6.954;-71.872;2022-10-31T08:14:54;27.30;99.90
46055;DHT22;31788;6.954;-71.872;2022-10-31T08:17:21;27.30;99.90
46055;DHT22;31788;6.954;-71.872;2022-10-31T08:19:47;27.30;99.90
46055;DHT22;31788;6.954;-71.872;2022-10-31T08:22:14;27.30;99.90
46055;DHT22;31788;6.954;-71.872;2022-10-31T08:24:40;27.30;99.90
46055;DHT22;31788;6.954;-71.872;2022-10-31T08:27:07;27.30;99.90
46055;DHT22;31788;6.954;-71.872;2022-10-31T08:29:34;27.30;99.90
46055;DHT22;31788;6.954;-71.872;2022-10-31T08:32:00;27.30;99.90
46055;DHT22;31788;6.954;-71.872;2022-10-31T08:34:27;27.30;99.90
46055;DHT22;31788;6.954;-71.872;2022-10-31T08:36:53;27.30;99.90
46055;DHT22;31788;6.954;-71.872;2022-10-31T08:39:20;27.20;99.90
46055;DHT22;31788;6.954;-71.872;2022-10-31T08:41:46;27.30;99.90
46055;DHT22;31788;6.954;-71.872;2022-10-31T08:44:13;27.20;99.90
46055;DHT22;31788;6.954;-71.872;2022-10-31T08:46:41;27.20;99.90
46055;DHT22;31788;6.954;-71.872;2022-10-31T08:49:08;27.20;99.90
46055;DHT22;31788;6.954;-71.872;2022-10-31T08:51:34;27.20;99.90
46055;DHT22;31788;6.954;-71.872;2022-10-31T08:54:01;27.20;99.90
46055;DHT22;31788;6.954;-71.872;2022-10-31T08:56:27;27.20;99.90
46055;DHT22;31788;6.954;-71.872;2022-10-31T08:58:54;27.10;99.90
46055;DHT22;31788;6.954;-71.872;2022-10-31T09:01:20;27.10;99.90
46055;DHT22;31788;6.954;-71.872;2022-10-31T09:03:47;27.10;99.90
46055;DHT22;31788;6.954;-71.872;2022-10-31T09:06:13;27.10;99.90
46055;DHT22;31788;6.954;-71.872;2022-10-31T09:08:40;27.00;99.90
46055;DHT22;31788;6.954;-71.872;2022-10-31T09:11:06;27.00;99.90
46055;DHT22;31788;6.954;-71.872;2022-10-31T09:13:33;27.00;99.90
46055;DHT22;31788;6.954;-71.872;2022-10-31T09:16:00;27.00;99.90
46055;DHT22;31788;6.954;-71.872;2022-10-31T09:18:26;27.00;99.90
46055;DHT22;31788;6.954;-71.872;2022-10-31T09:20:59;27.00;99.90
46055;DHT22;31788;6.954;-71.872;2022-10-31T09:23:26;27.00;99.90
46055;DHT22;31788;6.954;-71.872;2022-10-31T09:25:53;27.00;99.90
46055;DHT22;31788;6.954;-71.872;2022-10-31T09:28:22;27.00;99.90
46055;DHT22;31788;6.954;-71.872;2022-10-31T09:30:51;27.00;99.90
46055;DHT22;31788;6.954;-71.872;2022-10-31T09:33:18;27.00;99.90
46055;DHT22;31788;6.954;-71.872;2022-10-31T09:35:45;27.00;99.90
46055;DHT22;31788;6.954;-71.872;2022-10-31T09:38:15;27.00;99.90
46055;DHT22;31788;6.954;-71.872;2022-10-31T09:40:46;27.00;99.90
46055;DHT22;31788;6.954;-71.872;2022-10-31T09:51:11;27.00;99.90
46055;DHT22;31788;6.954;-71.872;2022-10-31T09:53:46;27.00;99.90
46055;DHT22;31788;6.954;-71.872;2022-10-31T09:56:18;27.00;99.90
46055;DHT22;31788;6.954;-71.872;2022-10-31T09:58:49;27.00;99.90
46055;DHT22;31788;6.954;-71.872;2022-10-31T10:06:39;26.90;99.90
46055;DHT22;31788;6.954;-71.872;2022-10-31T10:09:09;26.90;99.90
46055;DHT22;31788;6.954;-71.872;2022-10-31T10:11:55;26.90;99.90
46055;DHT22;31788;6.954;-71.872;2022-10-31T10:20:07;26.80;99.90
46055;DHT22;31788;6.954;-71.872;2022-10-31T10:23:16;26.80;99.90
46055;DHT22;31788;6.954;-71.872;2022-10-31T10:25:47;26.80;99.90
46055;DHT22;31788;6.954;-71.872;2022-10-31T10:28:35;26.70;99.90
46055;DHT22;31788;6.954;-71.872;2022-10-31T10:31:33;26.70;99.90
46055;DHT22;31788;6.954;-71.872;2022-10-31T10:36:47;26.70;99.90
46055;DHT22;31788;6.954;-71.872;2022-10-31T10:39:22;26.70;99.90
46055;DHT22;31788;6.954;-71.872;2022-10-31T10:41:50;26.70;99.90
46055;DHT22;31788;6.954;-71.872;2022-10-31T10:44:42;26.80;99.90
46055;DHT22;31788;6.954;-71.872;2022-10-31T10:47:41;26.80;99.90
46055;DHT22;31788;6.954;-71.872;2022-10-31T10:50:25;26.80;99.90
46055;DHT22;31788;6.954;-71.872;2022-10-31T10:53:13;26.80;99.90
46055;DHT22;31788;6.954;-71.872;2022-10-31T10:56:16;26.80;99.90
46055;DHT22;31788;6.954;-71.872;2022-10-31T10:58:43;26.80;99.90
46055;DHT22;31788;6.954;-71.872;2022-10-31T11:01:14;26.70;99.90
46055;DHT22;31788;6.954;-71.872;2022-10-31T11:03:41;26.80;99.90
46055;DHT22;31788;6.954;-71.872;2022-10-31T11:06:22;26.70;99.90
46055;DHT22;31788;6.954;-71.872;2022-10-31T11:08:52;26.80;99.90
46055;DHT22;31788;6.954;-71.872;2022-10-31T11:11:27;26.80;99.90
46055;DHT22;31788;6.954;-71.872;2022-10-31T11:14:13;26.80;99.90
46055;DHT22;31788;6.954;-71.872;2022-10-31T11:16:43;26.90;99.90
46055;DHT22;31788;6.954;-71.872;2022-10-31T11:19:23;26.90;99.90
46055;DHT22;31788;6.954;-71.872;2022-10-31T11:21:52;26.90;99.90
46055;DHT22;31788;6.954;-71.872;2022-10-31T11:24:22;27.00;99.90
46055;DHT22;31788;6.954;-71.872;2022-10-31T11:26:50;27.00;99.90
46055;DHT22;31788;6.954;-71.872;2022-10-31T11:29:23;27.00;99.90
46055;DHT22;31788;6.954;-71.872;2022-10-31T11:31:55;27.10;99.90
46055;DHT22;31788;6.954;-71.872;2022-10-31T11:34:28;27.10;99.90
46055;DHT22;31788;6.954;-71.872;2022-10-31T11:37:09;27.10;99.90
46055;DHT22;31788;6.954;-71.872;2022-10-31T11:39:42;27.10;99.90
46055;DHT22;31788;6.954;-71.872;2022-10-31T11:42:10;27.10;99.90
46055;DHT22;31788;6.954;-71.872;2022-10-31T11:44:36;27.20;99.90
46055;DHT22;31788;6.954;-71.872;2022-10-31T11:47:14;27.20;99.90
46055;DHT22;31788;6.954;-71.872;2022-10-31T11:49:44;27.20;99.90
46055;DHT22;31788;6.954;-71.872;2022-10-31T11:52:22;27.20;99.90
46055;DHT22;31788;6.954;-71.872;2022-10-31T11:54:57;27.20;99.90
46055;DHT22;31788;6.954;-71.872;2022-10-31T11:57:31;27.20;99.90
46055;DHT22;31788;6.954;-71.872;2022-10-31T12:00:00;27.20;99.90
46055;DHT22;31788;6.954;-71.872;2022-10-31T12:02:27;27.30;99.90
46055;DHT22;31788;6.954;-71.872;2022-10-31T12:04:56;27.30;99.90
46055;DHT22;31788;6.954;-71.872;2022-10-31T12:07:24;27.30;99.90
46055;DHT22;31788;6.954;-71.872;2022-10-31T12:09:51;27.30;99.90
46055;DHT22;31788;6.954;-71.872;2022-10-31T12:12:45;27.40;99.90
46055;DHT22;31788;6.954;-71.872;2022-10-31T12:21:28;27.50;99.90
46055;DHT22;31788;6.954;-71.872;2022-10-31T12:30:15;27.50;99.90
46055;DHT22;31788;6.954;-71.872;2022-10-31T12:41:29;27.60;99.90
46055;DHT22;31788;6.954;-71.872;2022-10-31T12:59:23;27.70;99.90
46055;DHT22;31788;6.954;-71.872;2022-10-31T13:06:51;27.80;99.90
46055;DHT22;31788;6.954;-71.872;2022-10-31T13:09:30;27.80;99.90
46055;DHT22;31788;6.954;-71.872;2022-10-31T13:12:07;27.80;99.90
46055;DHT22;31788;6.954;-71.872;2022-10-31T13:17:05;27.80;99.90
46055;DHT22;31788;6.954;-71.872;2022-10-31T13:19:42;27.80;99.90
46055;DHT22;31788;6.954;-71.872;2022-10-31T13:22:17;27.90;99.90
46055;DHT22;31788;6.954;-71.872;2022-10-31T13:30:38;28.00;99.90
46055;DHT22;31788;6.954;-71.872;2022-10-31T13:33:09;28.00;99.90
46055;DHT22;31788;6.954;-71.872;2022-10-31T13:44:24;28.10;99.90
46055;DHT22;31788;6.954;-71.872;2022-10-31T13:46:54;28.10;99.90
46055;DHT22;31788;6.954;-71.872;2022-10-31T13:54:49;28.20;99.90
46055;DHT22;31788;6.954;-71.872;2022-10-31T13:59:55;28.20;99.90
46055;DHT22;31788;6.954;-71.872;2022-10-31T14:02:29;28.30;99.90
46055;DHT22;31788;6.954;-71.872;2022-10-31T14:07:53;28.30;99.90
46055;DHT22;31788;6.954;-71.872;2022-10-31T14:10:36;28.30;99.90
46055;DHT22;31788;6.954;-71.872;2022-10-31T14:13:26;28.40;99.90
46055;DHT22;31788;6.954;-71.872;2022-10-31T14:16:03;28.40;99.90
46055;DHT22;31788;6.954;-71.872;2022-10-31T14:18:38;28.40;99.90
46055;DHT22;31788;6.954;-71.872;2022-10-31T14:21:26;28.40;99.90
46055;DHT22;31788;6.954;-71.872;2022-10-31T14:23:55;28.40;99.90
46055;DHT22;31788;6.954;-71.872;2022-10-31T14:29:01;28.50;99.90
46055;DHT22;31788;6.954;-71.872;2022-10-31T14:31:41;28.40;99.80
46055;DHT22;31788;6.954;-71.872;2022-10-31T14:34:27;28.50;99.90
46055;DHT22;31788;6.954;-71.872;2022-10-31T14:39:34;28.50;99.80
46055;DHT22;31788;6.954;-71.872;2022-10-31T14:42:32;28.50;99.40
46055;DHT22;31788;6.954;-71.872;2022-10-31T14:50:48;28.60;99.40
46055;DHT22;31788;6.954;-71.872;2022-10-31T14:53:34;28.60;99.30
46055;DHT22;31788;6.954;-71.872;2022-10-31T14:56:02;28.60;99.20
46055;DHT22;31788;6.954;-71.872;2022-10-31T14:58:44;28.60;99.40
46055;DHT22;31788;6.954;-71.872;2022-10-31T15:01:28;28.60;99.20
46055;DHT22;31788;6.954;-71.872;2022-10-31T15:04:09;28.60;99.20
46055;DHT22;31788;6.954;-71.872;2022-10-31T15:06:46;28.60;99.20
46055;DHT22;31788;6.954;-71.872;2022-10-31T15:09:25;28.70;98.80
46055;DHT22;31788;6.954;-71.872;2022-10-31T15:11:52;28.60;98.80
46055;DHT22;31788;6.954;-71.872;2022-10-31T15:14:28;28.70;98.60
46055;DHT22;31788;6.954;-71.872;2022-10-31T15:17:02;28.70;98.50
46055;DHT22;31788;6.954;-71.872;2022-10-31T15:19:33;28.70;98.30
46055;DHT22;31788;6.954;-71.872;2022-10-31T15:22:02;28.70;98.30
46055;DHT22;31788;6.954;-71.872;2022-10-31T15:24:34;28.70;98.10
46055;DHT22;31788;6.954;-71.872;2022-10-31T15:27:02;28.80;98.20
46055;DHT22;31788;6.954;-71.872;2022-10-31T15:29:29;28.80;98.00
46055;DHT22;31788;6.954;-71.872;2022-10-31T15:32:25;28.70;98.20
46055;DHT22;31788;6.954;-71.872;2022-10-31T15:34:53;28.80;98.10
46055;DHT22;31788;6.954;-71.872;2022-10-31T15:37:22;28.80;98.00
46055;DHT22;31788;6.954;-71.872;2022-10-31T15:39:51;28.80;98.10
46055;DHT22;31788;6.954;-71.872;2022-10-31T15:42:29;28.80;98.20
46055;DHT22;31788;6.954;-71.872;2022-10-31T15:45:04;28.80;98.20
46055;DHT22;31788;6.954;-71.872;2022-10-31T15:47:32;28.80;98.20
46055;DHT22;31788;6.954;-71.872;2022-10-31T15:50:00;28.80;98.30
46055;DHT22;31788;6.954;-71.872;2022-10-31T15:55:05;28.90;98.40
46055;DHT22;31788;6.954;-71.872;2022-10-31T15:57:46;28.90;98.40
46055;DHT22;31788;6.954;-71.872;2022-10-31T16:00:24;28.90;97.80
46055;DHT22;31788;6.954;-71.872;2022-10-31T16:05:46;28.90;98.00
46055;DHT22;31788;6.954;-71.872;2022-10-31T16:10:56;29.00;97.90
46055;DHT22;31788;6.954;-71.872;2022-10-31T16:13:40;29.00;97.90
46055;DHT22;31788;6.954;-71.872;2022-10-31T16:16:15;29.00;98.00
46055;DHT22;31788;6.954;-71.872;2022-10-31T16:18:42;29.00;98.00
46055;DHT22;31788;6.954;-71.872;2022-10-31T16:21:10;29.10;97.70
46055;DHT22;31788;6.954;-71.872;2022-10-31T16:23:39;29.00;97.80
46055;DHT22;31788;6.954;-71.872;2022-10-31T16:26:10;29.10;97.90
46055;DHT22;31788;6.954;-71.872;2022-10-31T16:28:52;29.10;98.00
46055;DHT22;31788;6.954;-71.872;2022-10-31T16:31:28;29.10;97.90
46055;DHT22;31788;6.954;-71.872;2022-10-31T16:34:17;29.10;97.60
46055;DHT22;31788;6.954;-71.872;2022-10-31T16:36:45;29.20;97.70
46055;DHT22;31788;6.954;-71.872;2022-10-31T16:39:12;29.20;97.70
46055;DHT22;31788;6.954;-71.872;2022-10-31T16:41:41;29.20;97.60
46055;DHT22;31788;6.954;-71.872;2022-10-31T16:44:24;29.20;97.30
46055;DHT22;31788;6.954;-71.872;2022-10-31T16:47:14;29.20;97.40
46055;DHT22;31788;6.954;-71.872;2022-10-31T16:49:42;29.20;97.60
46055;DHT22;31788;6.954;-71.872;2022-10-31T16:52:09;29.20;97.70
46055;DHT22;31788;6.954;-71.872;2022-10-31T16:54:36;29.20;97.70
46055;DHT22;31788;6.954;-71.872;2022-10-31T16:57:04;29.20;97.80
46055;DHT22;31788;6.954;-71.872;2022-10-31T16:59:32;29.20;97.70
46055;DHT22;31788;6.954;-71.872;2022-10-31T17:02:03;29.20;97.80
46055;DHT22;31788;6.954;-71.872;2022-10-31T17:04:30;29.20;97.80
46055;DHT22;31788;6.954;-71.872;2022-10-31T17:06:56;29.20;97.70
46055;DHT22;31788;6.954;-71.872;2022-10-31T17:09:23;29.20;97.40
46055;DHT22;31788;6.954;-71.872;2022-10-31T17:11:52;29.30;97.20
46055;DHT22;31788;6.954;-71.872;2022-10-31T17:14:19;29.30;97.50
46055;DHT22;31788;6.954;-71.872;2022-10-31T17:16:47;29.30;97.40
46055;DHT22;31788;6.954;-71.872;2022-10-31T17:19:15;29.40;97.30
46055;DHT22;31788;6.954;-71.872;2022-10-31T17:21:41;29.40;97.40
46055;DHT22;31788;6.954;-71.872;2022-10-31T17:24:12;29.30;97.40
46055;DHT22;31788;6.954;-71.872;2022-10-31T17:26:39;29.40;97.50
46055;DHT22;31788;6.954;-71.872;2022-10-31T17:29:06;29.40;97.00
46055;DHT22;31788;6.954;-71.872;2022-10-31T17:31:34;29.40;96.50
46055;DHT22;31788;6.954;-71.872;2022-10-31T17:34:04;29.50;97.10
46055;DHT22;31788;6.954;-71.872;2022-10-31T17:36:33;29.60;96.90
46055;DHT22;31788;6.954;-71.872;2022-10-31T17:38:59;29.50;97.00
46055;DHT22;31788;6.954;-71.872;2022-10-31T17:41:26;29.50;97.00
46055;DHT22;31788;6.954;-71.872;2022-10-31T17:43:55;29.40;97.00
46055;DHT22;31788;6.954;-71.872;2022-10-31T17:46:22;29.50;97.00
46055;DHT22;31788;6.954;-71.872;2022-10-31T17:48:48;29.50;97.10
46055;DHT22;31788;6.954;-71.872;2022-10-31T17:51:15;29.50;96.90
46055;DHT22;31788;6.954;-71.872;2022-10-31T17:53:42;29.50;96.90
46055;DHT22;31788;6.954;-71.872;2022-10-31T17:56:09;29.40;96.20
46055;DHT22;31788;6.954;-71.872;2022-10-31T17:58:36;29.50;96.40